sensor_id;sensor_type;location;lat;lon;timestamp;P1;durP1;ratioP1;P2;durP2;ratioP2
71606;SDS011;60641;53.556;9.914;2023-04-03T00:01:03;8.60;;;1.10;;
71606;SDS011;60641;53.556;9.914;2023-04-03T00:03:31;7.40;;;1.20;;
71606;SDS011;60641;53.556;9.914;2023-04-03T00:05:58;7.60;;;1.20;;
71606;SDS011;60641;53.556;9.914;2023-04-03T00:08:25;5.70;;;1.00;;
71606;SDS011;60641;53.556;9.914;2023-04-03T00:10:52;7.60;;;1.40;;
71606;SDS011;60641;53.556;9.914;2023-04-03T00:13:18;7.30;;;1.00;;
71606;SDS011;60641;53.556;9.914;2023-04-03T00:15:45;7.90;;;1.30;;
71606;SDS011;60641;53.556;9.914;2023-04-03T00:18:11;7.20;;;1.10;;
71606;SDS011;60641;53.556;9.914;2023-04-03T00:20:38;6.50;;;1.40;;
71606;SDS011;60641;53.556;9.914;2023-04-03T00:23:04;7.90;;;1.20;;
71606;SDS011;60641;53.556;9.914;2023-04-03T00:25:31;7.20;;;1.10;;
71606;SDS011;60641;53.556;9.914;2023-04-03T00:27:57;9.00;;;1.30;;
71606;SDS011;60641;53.556;9.914;2023-04-03T00:30:24;10.10;;;1.30;;
71606;SDS011;60641;53.556;9.914;2023-04-03T00:32:51;5.20;;;1.00;;
71606;SDS011;60641;53.556;9.914;2023-04-03T00:35:18;7.00;;;1.10;;
71606;SDS011;60641;53.556;9.914;2023-04-03T00:37:45;5.90;;;1.20;;
71606;SDS011;60641;53.556;9.914;2023-04-03T00:40:14;5.20;;;0.90;;
71606;SDS011;60641;53.556;9.914;2023-04-03T00:42:41;4.90;;;1.00;;
71606;SDS011;60641;53.556;9.914;2023-04-03T00:47:44;9.40;;;1.40;;
71606;SDS011;60641;53.556;9.914;2023-04-03T00:50:10;9.00;;;1.50;;
71606;SDS011;60641;53.556;9.914;2023-04-03T00:52:37;8.00;;;1.20;;
71606;SDS011;60641;53.556;9.914;2023-04-03T00:55:06;8.50;;;1.30;;
71606;SDS011;60641;53.556;9.914;2023-04-03T00:57:34;6.30;;;1.00;;
71606;SDS011;60641;53.556;9.914;2023-04-03T01:00:03;6.80;;;1.10;;
71606;SDS011;60641;53.556;9.914;2023-04-03T01:02:32;6.00;;;1.20;;
71606;SDS011;60641;53.556;9.914;2023-04-03T01:04:58;7.00;;;1.50;;
71606;SDS011;60641;53.556;9.914;2023-04-03T01:07:26;5.70;;;1.10;;
71606;SDS011;60641;53.556;9.914;2023-04-03T01:09:58;5.30;;;1.20;;
71606;SDS011;60641;53.556;9.914;2023-04-03T01:12:27;10.40;;;1.40;;
71606;SDS011;60641;53.556;9.914;2023-04-03T01:14:59;8.40;;;1.80;;
71606;SDS011;60641;53.556;9.914;2023-04-03T01:17:36;7.60;;;1.30;;
71606;SDS011;60641;53.556;9.914;2023-04-03T01:25:37;9.40;;;1.60;;
71606;SDS011;60641;53.556;9.914;2023-04-03T01:28:11;6.30;;;1.20;;
71606;SDS011;60641;53.556;9.914;2023-04-03T01:30:48;6.70;;;1.50;;
71606;SDS011;60641;53.556;9.914;2023-04-03T01:33:20;7.40;;;1.40;;
71606;SDS011;60641;53.556;9.914;2023-04-03T01:35:46;8.00;;;1.20;;
71606;SDS011;60641;53.556;9.914;2023-04-03T01:38:12;8.50;;;1.60;;
71606;SDS011;60641;53.556;9.914;2023-04-03T01:40:39;8.00;;;1.20;;
71606;SDS011;60641;53.556;9.914;2023-04-03T01:43:06;6.70;;;1.50;;
71606;SDS011;60641;53.556;9.914;2023-04-03T01:45:32;7.70;;;1.60;;
71606;SDS011;60641;53.556;9.914;2023-04-03T01:47:58;9.10;;;1.30;;
71606;SDS011;60641;53.556;9.914;2023-04-03T01:50:25;8.90;;;1.90;;
71606;SDS011;60641;53.556;9.914;2023-04-03T01:52:52;9.00;;;2.10;;
71606;SDS011;60641;53.556;9.914;2023-04-03T01:55:18;7.50;;;1.60;;
71606;SDS011;60641;53.556;9.914;2023-04-03T01:57:45;9.40;;;1.60;;
71606;SDS011;60641;53.556;9.914;2023-04-03T02:00:11;8.80;;;1.70;;
71606;SDS011;60641;53.556;9.914;2023-04-03T02:02:38;10.20;;;1.90;;
71606;SDS011;60641;53.556;9.914;2023-04-03T02:05:05;6.80;;;1.50;;
71606;SDS011;60641;53.556;9.914;2023-04-03T02:07:32;9.60;;;1.70;;
71606;SDS011;60641;53.556;9.914;2023-04-03T02:09:59;10.30;;;1.60;;
71606;SDS011;60641;53.556;9.914;2023-04-03T02:12:25;9.60;;;1.40;;
71606;SDS011;60641;53.556;9.914;2023-04-03T02:14:52;8.30;;;1.60;;
71606;SDS011;60641;53.556;9.914;2023-04-03T02:17:18;11.90;;;1.50;;
71606;SDS011;60641;53.556;9.914;2023-04-03T02:19:45;10.50;;;2.00;;
71606;SDS011;60641;53.556;9.914;2023-04-03T02:22:11;9.80;;;1.80;;
71606;SDS011;60641;53.556;9.914;2023-04-03T02:24:38;6.60;;;1.70;;
71606;SDS011;60641;53.556;9.914;2023-04-03T02:27:06;9.10;;;1.80;;
71606;SDS011;60641;53.556;9.914;2023-04-03T02:29:32;7.60;;;1.80;;
71606;SDS011;60641;53.556;9.914;2023-04-03T02:31:59;10.20;;;1.90;;
71606;SDS011;60641;53.556;9.914;2023-04-03T02:34:25;8.10;;;1.60;;
71606;SDS011;60641;53.556;9.914;2023-04-03T02:36:51;10.40;;;1.70;;
71606;SDS011;60641;53.556;9.914;2023-04-03T02:39:18;8.10;;;1.70;;
71606;SDS011;60641;53.556;9.914;2023-04-03T02:41:44;10.50;;;1.60;;
71606;SDS011;60641;53.556;9.914;2023-04-03T02:44:11;10.10;;;2.10;;
71606;SDS011;60641;53.556;9.914;2023-04-03T02:46:37;9.10;;;1.60;;
71606;SDS011;60641;53.556;9.914;2023-04-03T02:49:04;7.20;;;1.60;;
71606;SDS011;60641;53.556;9.914;2023-04-03T02:51:32;8.30;;;1.50;;
71606;SDS011;60641;53.556;9.914;2023-04-03T02:53:58;7.10;;;1.70;;
71606;SDS011;60641;53.556;9.914;2023-04-03T02:56:25;14.00;;;1.90;;
71606;SDS011;60641;53.556;9.914;2023-04-03T02:58:53;9.60;;;2.00;;
71606;SDS011;60641;53.556;9.914;2023-04-03T03:01:19;8.30;;;1.70;;
71606;SDS011;60641;53.556;9.914;2023-04-03T03:03:45;6.20;;;1.70;;
71606;SDS011;60641;53.556;9.914;2023-04-03T03:06:13;12.20;;;2.20;;
71606;SDS011;60641;53.556;9.914;2023-04-03T03:08:41;7.30;;;1.50;;
71606;SDS011;60641;53.556;9.914;2023-04-03T03:11:08;7.40;;;1.40;;
71606;SDS011;60641;53.556;9.914;2023-04-03T03:13:35;10.70;;;2.00;;
71606;SDS011;60641;53.556;9.914;2023-04-03T03:16:02;7.80;;;1.80;;
71606;SDS011;60641;53.556;9.914;2023-04-03T03:18:29;9.50;;;1.90;;
71606;SDS011;60641;53.556;9.914;2023-04-03T03:20:57;11.10;;;2.20;;
71606;SDS011;60641;53.556;9.914;2023-04-03T03:23:25;9.00;;;1.90;;
71606;SDS011;60641;53.556;9.914;2023-04-03T03:25:56;7.90;;;1.70;;
71606;SDS011;60641;53.556;9.914;2023-04-03T03:28:27;10.30;;;1.90;;
71606;SDS011;60641;53.556;9.914;2023-04-03T03:30:54;7.60;;;1.40;;
71606;SDS011;60641;53.556;9.914;2023-04-03T03:33:20;7.90;;;1.70;;
71606;SDS011;60641;53.556;9.914;2023-04-03T03:35:47;11.80;;;1.50;;
71606;SDS011;60641;53.556;9.914;2023-04-03T03:38:13;9.80;;;1.50;;
71606;SDS011;60641;53.556;9.914;2023-04-03T03:40:40;12.70;;;1.70;;
71606;SDS011;60641;53.556;9.914;2023-04-03T03:43:07;9.60;;;1.70;;
71606;SDS011;60641;53.556;9.914;2023-04-03T03:45:33;6.90;;;1.40;;
71606;SDS011;60641;53.556;9.914;2023-04-03T03:48:00;8.70;;;1.60;;
71606;SDS011;60641;53.556;9.914;2023-04-03T03:50:27;9.00;;;1.80;;
71606;SDS011;60641;53.556;9.914;2023-04-03T03:52:53;11.40;;;2.00;;
71606;SDS011;60641;53.556;9.914;2023-04-03T03:55:20;6.10;;;1.50;;
71606;SDS011;60641;53.556;9.914;2023-04-03T03:57:46;9.10;;;1.80;;
71606;SDS011;60641;53.556;9.914;2023-04-03T04:00:14;13.80;;;2.20;;
71606;SDS011;60641;53.556;9.914;2023-04-03T04:02:42;11.20;;;1.70;;
71606;SDS011;60641;53.556;9.914;2023-04-03T04:05:09;7.00;;;1.60;;
71606;SDS011;60641;53.556;9.914;2023-04-03T04:07:35;11.60;;;1.80;;
71606;SDS011;60641;53.556;9.914;2023-04-03T04:10:02;10.80;;;1.60;;
71606;SDS011;60641;53.556;9.914;2023-04-03T04:12:29;7.60;;;1.50;;
71606;SDS011;60641;53.556;9.914;2023-04-03T04:14:56;7.40;;;1.50;;
71606;SDS011;60641;53.556;9.914;2023-04-03T04:17:22;6.80;;;1.60;;
71606;SDS011;60641;53.556;9.914;2023-04-03T04:19:48;6.30;;;1.60;;
71606;SDS011;60641;53.556;9.914;2023-04-03T04:22:15;7.50;;;1.70;;
71606;SDS011;60641;53.556;9.914;2023-04-03T04:24:41;8.50;;;1.90;;
71606;SDS011;60641;53.556;9.914;2023-04-03T04:27:08;10.70;;;1.90;;
71606;SDS011;60641;53.556;9.914;2023-04-03T04:29:35;11.20;;;1.90;;
71606;SDS011;60641;53.556;9.914;2023-04-03T04:32:03;7.30;;;1.70;;
71606;SDS011;60641;53.556;9.914;2023-04-03T04:34:30;8.60;;;2.40;;
71606;SDS011;60641;53.556;9.914;2023-04-03T04:36:56;6.90;;;1.30;;
71606;SDS011;60641;53.556;9.914;2023-04-03T04:39:23;9.90;;;1.70;;
71606;SDS011;60641;53.556;9.914;2023-04-03T04:41:50;10.80;;;1.90;;
71606;SDS011;60641;53.556;9.914;2023-04-03T04:44:16;9.10;;;1.40;;
71606;SDS011;60641;53.556;9.914;2023-04-03T04:46:43;9.60;;;1.90;;
71606;SDS011;60641;53.556;9.914;2023-04-03T04:49:10;5.90;;;1.90;;
71606;SDS011;60641;53.556;9.914;2023-04-03T04:51:36;8.90;;;1.70;;
71606;SDS011;60641;53.556;9.914;2023-04-03T04:54:03;10.80;;;2.00;;
71606;SDS011;60641;53.556;9.914;2023-04-03T04:56:30;8.40;;;1.60;;
71606;SDS011;60641;53.556;9.914;2023-04-03T04:58:56;14.00;;;2.00;;
71606;SDS011;60641;53.556;9.914;2023-04-03T05:01:22;13.60;;;1.90;;
71606;SDS011;60641;53.556;9.914;2023-04-03T05:03:49;16.70;;;3.20;;
71606;SDS011;60641;53.556;9.914;2023-04-03T05:06:15;19.60;;;2.40;;
71606;SDS011;60641;53.556;9.914;2023-04-03T05:08:42;17.30;;;2.40;;
71606;SDS011;60641;53.556;9.914;2023-04-03T05:11:08;10.70;;;3.10;;
71606;SDS011;60641;53.556;9.914;2023-04-03T05:13:35;10.50;;;2.50;;
71606;SDS011;60641;53.556;9.914;2023-04-03T05:16:01;15.20;;;2.40;;
71606;SDS011;60641;53.556;9.914;2023-04-03T05:18:28;18.10;;;3.00;;
71606;SDS011;60641;53.556;9.914;2023-04-03T05:20:54;13.40;;;2.40;;
71606;SDS011;60641;53.556;9.914;2023-04-03T05:23:21;15.50;;;2.90;;
71606;SDS011;60641;53.556;9.914;2023-04-03T05:25:47;15.80;;;2.40;;
71606;SDS011;60641;53.556;9.914;2023-04-03T05:28:14;12.30;;;2.70;;
71606;SDS011;60641;53.556;9.914;2023-04-03T05:30:41;9.20;;;1.90;;
71606;SDS011;60641;53.556;9.914;2023-04-03T05:33:08;15.60;;;2.30;;
71606;SDS011;60641;53.556;9.914;2023-04-03T05:35:35;13.10;;;2.50;;
71606;SDS011;60641;53.556;9.914;2023-04-03T05:38:05;12.10;;;2.00;;
71606;SDS011;60641;53.556;9.914;2023-04-03T05:40:31;9.70;;;2.10;;
71606;SDS011;60641;53.556;9.914;2023-04-03T05:42:58;10.00;;;1.90;;
71606;SDS011;60641;53.556;9.914;2023-04-03T05:45:24;13.60;;;2.20;;
71606;SDS011;60641;53.556;9.914;2023-04-03T05:47:51;13.40;;;2.20;;
71606;SDS011;60641;53.556;9.914;2023-04-03T05:50:17;14.10;;;2.40;;
71606;SDS011;60641;53.556;9.914;2023-04-03T05:52:45;12.20;;;2.10;;
71606;SDS011;60641;53.556;9.914;2023-04-03T05:55:14;9.90;;;2.20;;
71606;SDS011;60641;53.556;9.914;2023-04-03T05:57:41;9.40;;;2.30;;
71606;SDS011;60641;53.556;9.914;2023-04-03T06:00:11;9.40;;;2.00;;
71606;SDS011;60641;53.556;9.914;2023-04-03T06:02:38;8.70;;;1.90;;
71606;SDS011;60641;53.556;9.914;2023-04-03T06:05:05;7.20;;;1.90;;
71606;SDS011;60641;53.556;9.914;2023-04-03T06:07:33;9.20;;;1.90;;
71606;SDS011;60641;53.556;9.914;2023-04-03T06:09:59;10.90;;;2.20;;
71606;SDS011;60641;53.556;9.914;2023-04-03T06:12:26;8.80;;;1.90;;
71606;SDS011;60641;53.556;9.914;2023-04-03T06:14:55;8.10;;;1.90;;
71606;SDS011;60641;53.556;9.914;2023-04-03T06:17:21;13.90;;;1.90;;
71606;SDS011;60641;53.556;9.914;2023-04-03T06:19:48;8.50;;;1.70;;
71606;SDS011;60641;53.556;9.914;2023-04-03T06:22:14;10.40;;;2.20;;
71606;SDS011;60641;53.556;9.914;2023-04-03T06:24:41;9.60;;;2.10;;
71606;SDS011;60641;53.556;9.914;2023-04-03T06:27:08;9.90;;;2.60;;
71606;SDS011;60641;53.556;9.914;2023-04-03T06:29:36;7.80;;;2.20;;
71606;SDS011;60641;53.556;9.914;2023-04-03T06:32:03;9.40;;;2.20;;
71606;SDS011;60641;53.556;9.914;2023-04-03T06:34:30;11.00;;;2.20;;
71606;SDS011;60641;53.556;9.914;2023-04-03T06:36:57;12.50;;;2.20;;
71606;SDS011;60641;53.556;9.914;2023-04-03T06:39:24;9.70;;;2.00;;
71606;SDS011;60641;53.556;9.914;2023-04-03T06:41:50;7.80;;;2.00;;
71606;SDS011;60641;53.556;9.914;2023-04-03T06:44:17;8.90;;;1.80;;
71606;SDS011;60641;53.556;9.914;2023-04-03T06:46:44;12.60;;;2.20;;
71606;SDS011;60641;53.556;9.914;2023-04-03T06:49:12;8.80;;;2.00;;
71606;SDS011;60641;53.556;9.914;2023-04-03T06:51:38;7.10;;;1.70;;
71606;SDS011;60641;53.556;9.914;2023-04-03T06:54:05;10.80;;;1.70;;
71606;SDS011;60641;53.556;9.914;2023-04-03T06:56:32;6.70;;;1.40;;
71606;SDS011;60641;53.556;9.914;2023-04-03T06:58:59;10.10;;;1.60;;
71606;SDS011;60641;53.556;9.914;2023-04-03T07:01:26;7.80;;;1.40;;
71606;SDS011;60641;53.556;9.914;2023-04-03T07:03:54;9.50;;;1.80;;
71606;SDS011;60641;53.556;9.914;2023-04-03T07:06:21;7.00;;;1.60;;
71606;SDS011;60641;53.556;9.914;2023-04-03T07:08:48;9.00;;;1.40;;
71606;SDS011;60641;53.556;9.914;2023-04-03T07:11:15;7.40;;;1.30;;
71606;SDS011;60641;53.556;9.914;2023-04-03T07:13:42;5.80;;;1.20;;
71606;SDS011;60641;53.556;9.914;2023-04-03T07:16:09;6.10;;;1.40;;
71606;SDS011;60641;53.556;9.914;2023-04-03T07:18:35;6.90;;;0.90;;
71606;SDS011;60641;53.556;9.914;2023-04-03T07:21:02;5.40;;;1.10;;
71606;SDS011;60641;53.556;9.914;2023-04-03T07:23:29;9.40;;;1.20;;
71606;SDS011;60641;53.556;9.914;2023-04-03T07:25:56;5.50;;;0.90;;
71606;SDS011;60641;53.556;9.914;2023-04-03T07:28:23;4.70;;;1.00;;
71606;SDS011;60641;53.556;9.914;2023-04-03T07:30:51;6.60;;;0.90;;
71606;SDS011;60641;53.556;9.914;2023-04-03T07:33:19;5.60;;;0.90;;
71606;SDS011;60641;53.556;9.914;2023-04-03T07:35:47;4.90;;;0.90;;
71606;SDS011;60641;53.556;9.914;2023-04-03T07:38:13;4.40;;;0.80;;
71606;SDS011;60641;53.556;9.914;2023-04-03T07:40:40;5.30;;;0.90;;
71606;SDS011;60641;53.556;9.914;2023-04-03T07:43:12;1.80;;;0.50;;
71606;SDS011;60641;53.556;9.914;2023-04-03T07:45:39;6.50;;;0.80;;
71606;SDS011;60641;53.556;9.914;2023-04-03T07:48:05;3.60;;;0.70;;
71606;SDS011;60641;53.556;9.914;2023-04-03T07:50:32;5.50;;;0.90;;
71606;SDS011;60641;53.556;9.914;2023-04-03T07:52:59;4.70;;;0.80;;
71606;SDS011;60641;53.556;9.914;2023-04-03T07:55:25;7.20;;;0.80;;
71606;SDS011;60641;53.556;9.914;2023-04-03T07:57:51;3.10;;;0.50;;
71606;SDS011;60641;53.556;9.914;2023-04-03T08:00:18;5.50;;;0.90;;
71606;SDS011;60641;53.556;9.914;2023-04-03T08:02:45;3.40;;;0.50;;
71606;SDS011;60641;53.556;9.914;2023-04-03T08:05:18;3.90;;;0.60;;
71606;SDS011;60641;53.556;9.914;2023-04-03T08:07:45;4.60;;;0.50;;
71606;SDS011;60641;53.556;9.914;2023-04-03T08:10:13;3.90;;;0.50;;
71606;SDS011;60641;53.556;9.914;2023-04-03T08:12:40;3.10;;;0.40;;
71606;SDS011;60641;53.556;9.914;2023-04-03T08:15:09;5.40;;;0.90;;
71606;SDS011;60641;53.556;9.914;2023-04-03T08:17:36;4.80;;;1.10;;
71606;SDS011;60641;53.556;9.914;2023-04-03T08:20:04;7.70;;;0.80;;
71606;SDS011;60641;53.556;9.914;2023-04-03T08:22:32;3.80;;;0.50;;
71606;SDS011;60641;53.556;9.914;2023-04-03T08:24:59;4.50;;;0.60;;
71606;SDS011;60641;53.556;9.914;2023-04-03T08:27:26;4.30;;;0.70;;
71606;SDS011;60641;53.556;9.914;2023-04-03T08:29:53;6.50;;;0.80;;
71606;SDS011;60641;53.556;9.914;2023-04-03T08:32:19;3.50;;;0.60;;
71606;SDS011;60641;53.556;9.914;2023-04-03T08:34:46;3.10;;;0.50;;
71606;SDS011;60641;53.556;9.914;2023-04-03T08:37:12;3.60;;;0.60;;
71606;SDS011;60641;53.556;9.914;2023-04-03T08:39:39;6.40;;;1.00;;
71606;SDS011;60641;53.556;9.914;2023-04-03T08:42:11;5.80;;;0.80;;
71606;SDS011;60641;53.556;9.914;2023-04-03T08:49:53;4.90;;;0.80;;
71606;SDS011;60641;53.556;9.914;2023-04-03T08:52:25;3.70;;;0.80;;
71606;SDS011;60641;53.556;9.914;2023-04-03T08:54:55;2.90;;;0.60;;
71606;SDS011;60641;53.556;9.914;2023-04-03T08:57:28;4.60;;;0.70;;
71606;SDS011;60641;53.556;9.914;2023-04-03T08:59:57;4.80;;;0.70;;
71606;SDS011;60641;53.556;9.914;2023-04-03T09:02:28;4.70;;;0.70;;
71606;SDS011;60641;53.556;9.914;2023-04-03T09:05:01;3.40;;;0.80;;
71606;SDS011;60641;53.556;9.914;2023-04-03T09:10:15;5.90;;;1.20;;
71606;SDS011;60641;53.556;9.914;2023-04-03T09:12:53;4.30;;;0.70;;
71606;SDS011;60641;53.556;9.914;2023-04-03T09:15:31;3.90;;;0.60;;
71606;SDS011;60641;53.556;9.914;2023-04-03T09:18:15;3.30;;;0.70;;
71606;SDS011;60641;53.556;9.914;2023-04-03T09:23:23;3.20;;;0.60;;
71606;SDS011;60641;53.556;9.914;2023-04-03T09:25:53;4.80;;;0.90;;
71606;SDS011;60641;53.556;9.914;2023-04-03T09:28:24;4.70;;;1.20;;
71606;SDS011;60641;53.556;9.914;2023-04-03T09:30:51;7.20;;;0.90;;
71606;SDS011;60641;53.556;9.914;2023-04-03T09:33:17;4.10;;;0.70;;
71606;SDS011;60641;53.556;9.914;2023-04-03T09:35:44;3.60;;;0.70;;
71606;SDS011;60641;53.556;9.914;2023-04-03T09:40:40;8.70;;;0.80;;
71606;SDS011;60641;53.556;9.914;2023-04-03T09:45:44;3.90;;;0.90;;
71606;SDS011;60641;53.556;9.914;2023-04-03T09:55:54;4.70;;;0.80;;
71606;SDS011;60641;53.556;9.914;2023-04-03T09:58:26;2.70;;;0.70;;
71606;SDS011;60641;53.556;9.914;2023-04-03T10:00:57;3.50;;;0.50;;
71606;SDS011;60641;53.556;9.914;2023-04-03T10:03:27;3.10;;;0.60;;
71606;SDS011;60641;53.556;9.914;2023-04-03T10:05:55;5.40;;;0.60;;
71606;SDS011;60641;53.556;9.914;2023-04-03T10:08:26;3.80;;;0.70;;
71606;SDS011;60641;53.556;9.914;2023-04-03T10:11:16;4.80;;;0.80;;
71606;SDS011;60641;53.556;9.914;2023-04-03T10:13:55;6.00;;;0.70;;
71606;SDS011;60641;53.556;9.914;2023-04-03T10:16:27;3.60;;;0.70;;
71606;SDS011;60641;53.556;9.914;2023-04-03T10:21:53;3.20;;;0.60;;
71606;SDS011;60641;53.556;9.914;2023-04-03T10:24:36;2.80;;;0.50;;
71606;SDS011;60641;53.556;9.914;2023-04-03T10:29:42;2.10;;;0.50;;
71606;SDS011;60641;53.556;9.914;2023-04-03T10:38:02;3.70;;;0.50;;
71606;SDS011;60641;53.556;9.914;2023-04-03T10:40:58;5.40;;;0.60;;
71606;SDS011;60641;53.556;9.914;2023-04-03T10:49:32;4.90;;;0.60;;
71606;SDS011;60641;53.556;9.914;2023-04-03T10:57:31;4.60;;;0.60;;
71606;SDS011;60641;53.556;9.914;2023-04-03T11:00:03;3.60;;;0.60;;
71606;SDS011;60641;53.556;9.914;2023-04-03T11:02:32;4.70;;;0.60;;
71606;SDS011;60641;53.556;9.914;2023-04-03T11:10:49;3.50;;;0.60;;
71606;SDS011;60641;53.556;9.914;2023-04-03T11:13:18;3.50;;;0.80;;
71606;SDS011;60641;53.556;9.914;2023-04-03T11:15:49;3.80;;;0.50;;
71606;SDS011;60641;53.556;9.914;2023-04-03T11:18:22;4.20;;;0.70;;
71606;SDS011;60641;53.556;9.914;2023-04-03T11:23:36;4.10;;;0.70;;
71606;SDS011;60641;53.556;9.914;2023-04-03T11:26:13;5.50;;;0.80;;
71606;SDS011;60641;53.556;9.914;2023-04-03T11:28:46;3.10;;;0.60;;
71606;SDS011;60641;53.556;9.914;2023-04-03T11:31:33;3.30;;;0.60;;
71606;SDS011;60641;53.556;9.914;2023-04-03T11:34:08;5.00;;;0.80;;
71606;SDS011;60641;53.556;9.914;2023-04-03T11:36:49;4.50;;;0.80;;
71606;SDS011;60641;53.556;9.914;2023-04-03T11:41:45;4.50;;;0.80;;
71606;SDS011;60641;53.556;9.914;2023-04-03T11:44:33;3.60;;;0.60;;
71606;SDS011;60641;53.556;9.914;2023-04-03T11:47:03;3.40;;;0.70;;
71606;SDS011;60641;53.556;9.914;2023-04-03T11:49:53;3.80;;;0.80;;
71606;SDS011;60641;53.556;9.914;2023-04-03T11:55:56;7.00;;;0.90;;
71606;SDS011;60641;53.556;9.914;2023-04-03T12:05:52;2.10;;;0.50;;
71606;SDS011;60641;53.556;9.914;2023-04-03T12:08:27;4.00;;;0.70;;
71606;SDS011;60641;53.556;9.914;2023-04-03T12:13:41;2.30;;;0.60;;
71606;SDS011;60641;53.556;9.914;2023-04-03T12:21:20;4.50;;;0.70;;
71606;SDS011;60641;53.556;9.914;2023-04-03T12:26:51;4.30;;;0.70;;
71606;SDS011;60641;53.556;9.914;2023-04-03T12:32:22;4.00;;;0.80;;
71606;SDS011;60641;53.556;9.914;2023-04-03T12:35:18;4.30;;;0.70;;
71606;SDS011;60641;53.556;9.914;2023-04-03T12:38:10;4.40;;;0.80;;
71606;SDS011;60641;53.556;9.914;2023-04-03T12:46:41;6.30;;;1.20;;
71606;SDS011;60641;53.556;9.914;2023-04-03T12:49:23;5.00;;;0.90;;
71606;SDS011;60641;53.556;9.914;2023-04-03T12:51:55;5.20;;;1.10;;
71606;SDS011;60641;53.556;9.914;2023-04-03T12:54:37;6.10;;;0.90;;
71606;SDS011;60641;53.556;9.914;2023-04-03T12:57:39;4.40;;;0.80;;
71606;SDS011;60641;53.556;9.914;2023-04-03T12:59:59;4.90;;;0.70;;
71606;SDS011;60641;53.556;9.914;2023-04-03T13:02:26;4.90;;;0.70;;
71606;SDS011;60641;53.556;9.914;2023-04-03T13:04:58;8.10;;;0.80;;
71606;SDS011;60641;53.556;9.914;2023-04-03T13:07:43;3.10;;;0.70;;
71606;SDS011;60641;53.556;9.914;2023-04-03T13:10:14;2.70;;;0.60;;
71606;SDS011;60641;53.556;9.914;2023-04-03T13:12:49;3.40;;;0.60;;
71606;SDS011;60641;53.556;9.914;2023-04-03T13:15:27;4.70;;;0.90;;
71606;SDS011;60641;53.556;9.914;2023-04-03T13:17:55;2.90;;;0.60;;
71606;SDS011;60641;53.556;9.914;2023-04-03T13:20:32;6.40;;;0.70;;
71606;SDS011;60641;53.556;9.914;2023-04-03T13:23:07;5.10;;;0.80;;
71606;SDS011;60641;53.556;9.914;2023-04-03T13:25:36;3.20;;;0.60;;
71606;SDS011;60641;53.556;9.914;2023-04-03T13:28:06;3.70;;;0.70;;
71606;SDS011;60641;53.556;9.914;2023-04-03T13:30:35;4.70;;;0.70;;
71606;SDS011;60641;53.556;9.914;2023-04-03T13:33:03;3.50;;;0.50;;
71606;SDS011;60641;53.556;9.914;2023-04-03T13:35:34;4.30;;;0.70;;
71606;SDS011;60641;53.556;9.914;2023-04-03T13:38:21;5.50;;;0.70;;
71606;SDS011;60641;53.556;9.914;2023-04-03T13:40:51;7.50;;;0.80;;
71606;SDS011;60641;53.556;9.914;2023-04-03T13:43:41;5.00;;;0.70;;
71606;SDS011;60641;53.556;9.914;2023-04-03T13:48:47;3.20;;;0.60;;
71606;SDS011;60641;53.556;9.914;2023-04-03T13:53:49;3.00;;;0.50;;
71606;SDS011;60641;53.556;9.914;2023-04-03T13:56:32;2.90;;;0.70;;
71606;SDS011;60641;53.556;9.914;2023-04-03T14:04:14;4.50;;;0.60;;
71606;SDS011;60641;53.556;9.914;2023-04-03T14:06:41;3.00;;;0.50;;
71606;SDS011;60641;53.556;9.914;2023-04-03T14:09:08;3.80;;;0.80;;
71606;SDS011;60641;53.556;9.914;2023-04-03T14:11:35;4.40;;;1.00;;
71606;SDS011;60641;53.556;9.914;2023-04-03T14:14:05;3.50;;;0.60;;
71606;SDS011;60641;53.556;9.914;2023-04-03T14:16:37;3.30;;;0.70;;
71606;SDS011;60641;53.556;9.914;2023-04-03T14:19:07;4.10;;;0.80;;
71606;SDS011;60641;53.556;9.914;2023-04-03T14:21:43;4.10;;;1.00;;
71606;SDS011;60641;53.556;9.914;2023-04-03T14:24:10;3.30;;;0.50;;
71606;SDS011;60641;53.556;9.914;2023-04-03T14:26:37;4.90;;;0.70;;
71606;SDS011;60641;53.556;9.914;2023-04-03T14:29:03;4.20;;;0.80;;
71606;SDS011;60641;53.556;9.914;2023-04-03T14:31:30;6.80;;;0.80;;
71606;SDS011;60641;53.556;9.914;2023-04-03T14:33:57;3.90;;;0.80;;
71606;SDS011;60641;53.556;9.914;2023-04-03T14:36:24;4.20;;;0.90;;
71606;SDS011;60641;53.556;9.914;2023-04-03T14:38:53;3.70;;;0.60;;
71606;SDS011;60641;53.556;9.914;2023-04-03T14:41:22;2.90;;;0.50;;
71606;SDS011;60641;53.556;9.914;2023-04-03T14:43:49;2.60;;;0.60;;
71606;SDS011;60641;53.556;9.914;2023-04-03T14:46:18;3.70;;;0.70;;
71606;SDS011;60641;53.556;9.914;2023-04-03T14:48:56;6.40;;;1.00;;
71606;SDS011;60641;53.556;9.914;2023-04-03T14:51:24;4.40;;;0.80;;
71606;SDS011;60641;53.556;9.914;2023-04-03T14:53:52;5.10;;;0.90;;
71606;SDS011;60641;53.556;9.914;2023-04-03T14:56:21;4.40;;;0.60;;
71606;SDS011;60641;53.556;9.914;2023-04-03T14:58:50;5.80;;;0.80;;
71606;SDS011;60641;53.556;9.914;2023-04-03T15:01:20;6.10;;;1.10;;
71606;SDS011;60641;53.556;9.914;2023-04-03T15:03:47;4.40;;;0.90;;
71606;SDS011;60641;53.556;9.914;2023-04-03T15:06:13;3.40;;;0.70;;
71606;SDS011;60641;53.556;9.914;2023-04-03T15:08:41;3.30;;;0.50;;
71606;SDS011;60641;53.556;9.914;2023-04-03T15:11:09;4.00;;;0.70;;
71606;SDS011;60641;53.556;9.914;2023-04-03T15:13:37;7.10;;;0.80;;
71606;SDS011;60641;53.556;9.914;2023-04-03T15:16:04;4.60;;;0.80;;
71606;SDS011;60641;53.556;9.914;2023-04-03T15:18:34;4.60;;;0.80;;
71606;SDS011;60641;53.556;9.914;2023-04-03T15:21:04;6.60;;;1.10;;
71606;SDS011;60641;53.556;9.914;2023-04-03T15:23:31;6.00;;;0.90;;
71606;SDS011;60641;53.556;9.914;2023-04-03T15:25:57;7.00;;;1.00;;
71606;SDS011;60641;53.556;9.914;2023-04-03T15:30:58;7.20;;;0.80;;
71606;SDS011;60641;53.556;9.914;2023-04-03T15:33:26;5.80;;;0.80;;
71606;SDS011;60641;53.556;9.914;2023-04-03T15:35:52;4.30;;;0.80;;
71606;SDS011;60641;53.556;9.914;2023-04-03T15:38:19;5.40;;;0.70;;
71606;SDS011;60641;53.556;9.914;2023-04-03T15:40:46;3.40;;;0.80;;
71606;SDS011;60641;53.556;9.914;2023-04-03T15:43:13;4.00;;;0.80;;
71606;SDS011;60641;53.556;9.914;2023-04-03T15:45:41;5.00;;;1.00;;
71606;SDS011;60641;53.556;9.914;2023-04-03T15:48:08;3.90;;;0.70;;
71606;SDS011;60641;53.556;9.914;2023-04-03T15:50:36;4.20;;;0.80;;
71606;SDS011;60641;53.556;9.914;2023-04-03T15:53:02;4.50;;;1.00;;
71606;SDS011;60641;53.556;9.914;2023-04-03T15:55:30;3.00;;;0.70;;
71606;SDS011;60641;53.556;9.914;2023-04-03T15:57:58;5.40;;;0.80;;
71606;SDS011;60641;53.556;9.914;2023-04-03T16:00:25;4.90;;;0.90;;
71606;SDS011;60641;53.556;9.914;2023-04-03T16:02:53;4.50;;;0.80;;
71606;SDS011;60641;53.556;9.914;2023-04-03T16:05:23;2.50;;;0.60;;
71606;SDS011;60641;53.556;9.914;2023-04-03T16:07:50;4.30;;;0.70;;
71606;SDS011;60641;53.556;9.914;2023-04-03T16:10:17;3.80;;;0.70;;
71606;SDS011;60641;53.556;9.914;2023-04-03T16:12:44;3.90;;;0.90;;
71606;SDS011;60641;53.556;9.914;2023-04-03T16:15:11;6.00;;;0.90;;
71606;SDS011;60641;53.556;9.914;2023-04-03T16:17:37;2.60;;;0.50;;
71606;SDS011;60641;53.556;9.914;2023-04-03T16:20:05;3.80;;;0.70;;
71606;SDS011;60641;53.556;9.914;2023-04-03T16:22:33;3.80;;;0.80;;
71606;SDS011;60641;53.556;9.914;2023-04-03T16:25:01;2.60;;;0.60;;
71606;SDS011;60641;53.556;9.914;2023-04-03T16:27:27;3.50;;;0.80;;
71606;SDS011;60641;53.556;9.914;2023-04-03T16:29:59;4.30;;;0.90;;
71606;SDS011;60641;53.556;9.914;2023-04-03T16:32:26;5.60;;;1.30;;
71606;SDS011;60641;53.556;9.914;2023-04-03T16:34:54;4.10;;;0.80;;
71606;SDS011;60641;53.556;9.914;2023-04-03T16:37:21;5.10;;;1.10;;
71606;SDS011;60641;53.556;9.914;2023-04-03T16:39:47;5.70;;;1.00;;
71606;SDS011;60641;53.556;9.914;2023-04-03T16:42:14;4.10;;;1.00;;
71606;SDS011;60641;53.556;9.914;2023-04-03T16:44:42;3.80;;;0.70;;